sensor_id;sensor_type;location;lat;lon;timestamp;P1;durP1;ratioP1;P2;durP2;ratioP2
51228;SDS011;37304;52.216;6.874;2022-07-29T00:04:47;2.38;;;1.33;;
51228;SDS011;37304;52.216;6.874;2022-07-29T00:09:49;2.33;;;1.20;;
51228;SDS011;37304;52.216;6.874;2022-07-29T00:14:58;2.03;;;1.30;;
51228;SDS011;37304;52.216;6.874;2022-07-29T00:20:01;4.15;;;1.30;;
51228;SDS011;37304;52.216;6.874;2022-07-29T00:25:03;4.70;;;1.80;;
51228;SDS011;37304;52.216;6.874;2022-07-29T00:30:04;2.25;;;1.30;;
51228;SDS011;37304;52.216;6.874;2022-07-29T00:35:07;3.15;;;1.50;;
51228;SDS011;37304;52.216;6.874;2022-07-29T00:40:28;4.32;;;1.98;;
51228;SDS011;37304;52.216;6.874;2022-07-29T00:45:30;2.83;;;1.42;;
51228;SDS011;37304;52.216;6.874;2022-07-29T00:50:35;3.85;;;1.67;;
51228;SDS011;37304;52.216;6.874;2022-07-29T00:56:01;2.97;;;1.75;;
51228;SDS011;37304;52.216;6.874;2022-07-29T01:01:03;2.78;;;1.60;;
51228;SDS011;37304;52.216;6.874;2022-07-29T01:06:06;5.40;;;1.80;;
51228;SDS011;37304;52.216;6.874;2022-07-29T01:11:08;3.95;;;1.92;;
51228;SDS011;37304;52.216;6.874;2022-07-29T01:16:13;3.50;;;1.45;;
51228;SDS011;37304;52.216;6.874;2022-07-29T01:32:06;5.40;;;1.98;;
51228;SDS011;37304;52.216;6.874;2022-07-29T01:37:24;2.60;;;1.40;;
51228;SDS011;37304;52.216;6.874;2022-07-29T01:42:50;4.47;;;1.60;;
51228;SDS011;37304;52.216;6.874;2022-07-29T01:48:05;3.17;;;1.75;;
51228;SDS011;37304;52.216;6.874;2022-07-29T01:53:12;2.72;;;1.60;;
51228;SDS011;37304;52.216;6.874;2022-07-29T01:58:19;2.92;;;1.55;;
51228;SDS011;37304;52.216;6.874;2022-07-29T02:03:24;4.38;;;1.63;;
51228;SDS011;37304;52.216;6.874;2022-07-29T02:08:27;2.08;;;1.65;;
51228;SDS011;37304;52.216;6.874;2022-07-29T02:13:30;2.63;;;1.95;;
51228;SDS011;37304;52.216;6.874;2022-07-29T02:18:35;3.95;;;1.90;;
51228;SDS011;37304;52.216;6.874;2022-07-29T02:23:43;4.50;;;1.40;;
51228;SDS011;37304;52.216;6.874;2022-07-29T02:28:55;6.75;;;2.20;;
51228;SDS011;37304;52.216;6.874;2022-07-29T02:34:06;3.13;;;1.88;;
51228;SDS011;37304;52.216;6.874;2022-07-29T02:39:15;3.45;;;1.60;;
51228;SDS011;37304;52.216;6.874;2022-07-29T02:44:21;3.00;;;1.65;;
51228;SDS011;37304;52.216;6.874;2022-07-29T02:49:37;2.58;;;1.60;;
51228;SDS011;37304;52.216;6.874;2022-07-29T02:54:51;4.85;;;2.00;;
51228;SDS011;37304;52.216;6.874;2022-07-29T02:59:59;4.60;;;1.70;;
51228;SDS011;37304;52.216;6.874;2022-07-29T03:05:18;2.30;;;1.67;;
51228;SDS011;37304;52.216;6.874;2022-07-29T03:10:31;3.05;;;1.60;;
51228;SDS011;37304;52.216;6.874;2022-07-29T03:15:39;4.28;;;2.00;;
51228;SDS011;37304;52.216;6.874;2022-07-29T03:20:49;3.97;;;1.60;;
51228;SDS011;37304;52.216;6.874;2022-07-29T03:25:56;3.28;;;1.70;;
51228;SDS011;37304;52.216;6.874;2022-07-29T03:30:57;5.13;;;1.80;;
51228;SDS011;37304;52.216;6.874;2022-07-29T03:35:59;3.22;;;2.20;;
51228;SDS011;37304;52.216;6.874;2022-07-29T03:41:12;3.65;;;1.90;;
51228;SDS011;37304;52.216;6.874;2022-07-29T03:46:15;2.30;;;1.80;;
51228;SDS011;37304;52.216;6.874;2022-07-29T03:51:28;5.07;;;2.10;;
51228;SDS011;37304;52.216;6.874;2022-07-29T03:56:31;2.97;;;1.77;;
51228;SDS011;37304;52.216;6.874;2022-07-29T04:06:38;4.03;;;1.80;;
51228;SDS011;37304;52.216;6.874;2022-07-29T04:11:43;1.85;;;1.70;;
51228;SDS011;37304;52.216;6.874;2022-07-29T04:16:56;4.00;;;1.55;;
51228;SDS011;37304;52.216;6.874;2022-07-29T04:22:03;3.85;;;1.70;;
51228;SDS011;37304;52.216;6.874;2022-07-29T04:27:06;2.45;;;1.35;;
51228;SDS011;37304;52.216;6.874;2022-07-29T04:32:10;3.10;;;1.90;;
51228;SDS011;37304;52.216;6.874;2022-07-29T04:37:46;2.92;;;1.95;;
51228;SDS011;37304;52.216;6.874;2022-07-29T04:42:47;5.82;;;1.73;;
51228;SDS011;37304;52.216;6.874;2022-07-29T04:47:59;7.22;;;1.90;;
51228;SDS011;37304;52.216;6.874;2022-07-29T04:53:28;3.13;;;1.60;;
51228;SDS011;37304;52.216;6.874;2022-07-29T04:59:11;4.53;;;1.80;;
51228;SDS011;37304;52.216;6.874;2022-07-29T05:04:14;2.17;;;1.60;;
51228;SDS011;37304;52.216;6.874;2022-07-29T05:09:26;4.13;;;1.90;;
51228;SDS011;37304;52.216;6.874;2022-07-29T05:14:28;2.40;;;1.63;;
51228;SDS011;37304;52.216;6.874;2022-07-29T05:19:28;2.50;;;1.90;;
51228;SDS011;37304;52.216;6.874;2022-07-29T05:24:29;2.70;;;1.83;;
51228;SDS011;37304;52.216;6.874;2022-07-29T05:29:29;2.40;;;1.77;;
51228;SDS011;37304;52.216;6.874;2022-07-29T05:34:33;6.20;;;2.00;;
51228;SDS011;37304;52.216;6.874;2022-07-29T05:39:33;3.58;;;2.10;;
51228;SDS011;37304;52.216;6.874;2022-07-29T05:44:35;4.53;;;2.00;;
51228;SDS011;37304;52.216;6.874;2022-07-29T05:49:40;3.17;;;2.00;;
51228;SDS011;37304;52.216;6.874;2022-07-29T05:54:42;3.17;;;2.10;;
51228;SDS011;37304;52.216;6.874;2022-07-29T05:59:42;3.75;;;2.58;;
51228;SDS011;37304;52.216;6.874;2022-07-29T06:04:43;5.32;;;2.30;;
51228;SDS011;37304;52.216;6.874;2022-07-29T06:09:43;4.57;;;2.03;;
51228;SDS011;37304;52.216;6.874;2022-07-29T06:14:44;4.57;;;2.17;;
51228;SDS011;37304;52.216;6.874;2022-07-29T06:19:45;4.43;;;2.13;;
51228;SDS011;37304;52.216;6.874;2022-07-29T06:24:45;3.08;;;2.00;;
51228;SDS011;37304;52.216;6.874;2022-07-29T06:29:46;4.25;;;2.20;;
51228;SDS011;37304;52.216;6.874;2022-07-29T06:34:46;2.80;;;1.98;;
51228;SDS011;37304;52.216;6.874;2022-07-29T06:39:46;5.30;;;2.40;;
51228;SDS011;37304;52.216;6.874;2022-07-29T06:44:47;4.15;;;2.20;;
51228;SDS011;37304;52.216;6.874;2022-07-29T06:49:47;6.43;;;2.40;;
51228;SDS011;37304;52.216;6.874;2022-07-29T06:54:48;6.43;;;2.55;;
51228;SDS011;37304;52.216;6.874;2022-07-29T06:59:49;6.20;;;2.40;;
51228;SDS011;37304;52.216;6.874;2022-07-29T07:04:49;5.85;;;2.50;;
51228;SDS011;37304;52.216;6.874;2022-07-29T07:09:49;5.35;;;2.60;;
51228;SDS011;37304;52.216;6.874;2022-07-29T07:14:50;4.20;;;2.55;;
51228;SDS011;37304;52.216;6.874;2022-07-29T07:19:50;4.90;;;3.08;;
51228;SDS011;37304;52.216;6.874;2022-07-29T07:24:51;4.43;;;2.80;;
51228;SDS011;37304;52.216;6.874;2022-07-29T07:29:51;6.22;;;2.55;;
51228;SDS011;37304;52.216;6.874;2022-07-29T07:34:51;4.85;;;2.47;;
51228;SDS011;37304;52.216;6.874;2022-07-29T07:39:52;4.88;;;2.80;;
51228;SDS011;37304;52.216;6.874;2022-07-29T07:44:56;3.67;;;2.78;;
51228;SDS011;37304;52.216;6.874;2022-07-29T07:49:56;4.80;;;2.70;;
51228;SDS011;37304;52.216;6.874;2022-07-29T07:54:57;7.43;;;3.35;;
51228;SDS011;37304;52.216;6.874;2022-07-29T07:59:57;5.57;;;2.78;;
51228;SDS011;37304;52.216;6.874;2022-07-29T08:04:57;7.72;;;3.10;;
51228;SDS011;37304;52.216;6.874;2022-07-29T08:09:59;5.30;;;3.03;;
51228;SDS011;37304;52.216;6.874;2022-07-29T08:15:01;4.82;;;3.05;;
51228;SDS011;37304;52.216;6.874;2022-07-29T08:20:02;4.35;;;2.75;;
51228;SDS011;37304;52.216;6.874;2022-07-29T08:25:03;6.28;;;3.17;;
51228;SDS011;37304;52.216;6.874;2022-07-29T08:30:04;5.30;;;2.95;;
51228;SDS011;37304;52.216;6.874;2022-07-29T08:35:05;5.10;;;2.75;;
51228;SDS011;37304;52.216;6.874;2022-07-29T08:40:05;4.47;;;2.90;;
51228;SDS011;37304;52.216;6.874;2022-07-29T08:45:06;5.90;;;3.10;;
51228;SDS011;37304;52.216;6.874;2022-07-29T08:50:08;5.63;;;3.05;;
51228;SDS011;37304;52.216;6.874;2022-07-29T08:55:09;9.05;;;4.72;;
51228;SDS011;37304;52.216;6.874;2022-07-29T09:00:10;5.90;;;3.08;;
51228;SDS011;37304;52.216;6.874;2022-07-29T09:05:11;5.15;;;3.45;;
51228;SDS011;37304;52.216;6.874;2022-07-29T09:10:11;5.72;;;3.42;;
51228;SDS011;37304;52.216;6.874;2022-07-29T09:15:15;7.30;;;3.60;;
51228;SDS011;37304;52.216;6.874;2022-07-29T09:20:16;8.38;;;3.40;;
51228;SDS011;37304;52.216;6.874;2022-07-29T09:25:37;6.60;;;3.40;;
51228;SDS011;37304;52.216;6.874;2022-07-29T09:30:56;5.80;;;3.35;;
51228;SDS011;37304;52.216;6.874;2022-07-29T09:36:05;7.32;;;4.00;;
51228;SDS011;37304;52.216;6.874;2022-07-29T09:41:07;6.40;;;4.45;;
51228;SDS011;37304;52.216;6.874;2022-07-29T09:46:10;6.15;;;4.00;;
51228;SDS011;37304;52.216;6.874;2022-07-29T09:51:18;7.50;;;4.10;;
51228;SDS011;37304;52.216;6.874;2022-07-29T09:56:19;10.05;;;4.68;;
51228;SDS011;37304;52.216;6.874;2022-07-29T10:01:27;7.65;;;4.05;;
51228;SDS011;37304;52.216;6.874;2022-07-29T10:06:28;6.90;;;4.18;;
51228;SDS011;37304;52.216;6.874;2022-07-29T10:11:29;7.15;;;4.30;;
51228;SDS011;37304;52.216;6.874;2022-07-29T10:16:29;10.52;;;4.57;;
51228;SDS011;37304;52.216;6.874;2022-07-29T10:21:32;7.30;;;5.20;;
51228;SDS011;37304;52.216;6.874;2022-07-29T10:26:33;8.00;;;5.35;;
51228;SDS011;37304;52.216;6.874;2022-07-29T10:31:38;7.57;;;4.90;;
51228;SDS011;37304;52.216;6.874;2022-07-29T10:42:37;9.35;;;5.40;;
51228;SDS011;37304;52.216;6.874;2022-07-29T10:47:41;10.00;;;6.43;;
51228;SDS011;37304;52.216;6.874;2022-07-29T10:58:10;14.13;;;6.25;;
51228;SDS011;37304;52.216;6.874;2022-07-29T11:03:41;10.48;;;6.28;;
51228;SDS011;37304;52.216;6.874;2022-07-29T11:08:41;7.93;;;5.85;;
51228;SDS011;37304;52.216;6.874;2022-07-29T11:24:13;10.00;;;6.22;;
51228;SDS011;37304;52.216;6.874;2022-07-29T11:29:16;8.85;;;5.57;;
51228;SDS011;37304;52.216;6.874;2022-07-29T11:34:21;11.88;;;6.32;;
51228;SDS011;37304;52.216;6.874;2022-07-29T11:39:26;11.55;;;5.82;;
51228;SDS011;37304;52.216;6.874;2022-07-29T11:49:46;9.43;;;5.90;;
51228;SDS011;37304;52.216;6.874;2022-07-29T11:54:48;8.40;;;6.03;;
51228;SDS011;37304;52.216;6.874;2022-07-29T11:59:49;13.25;;;6.30;;
51228;SDS011;37304;52.216;6.874;2022-07-29T12:04:55;9.13;;;5.32;;
51228;SDS011;37304;52.216;6.874;2022-07-29T12:09:57;7.15;;;5.15;;
51228;SDS011;37304;52.216;6.874;2022-07-29T12:14:57;9.40;;;5.50;;
51228;SDS011;37304;52.216;6.874;2022-07-29T12:19:59;8.43;;;5.65;;
51228;SDS011;37304;52.216;6.874;2022-07-29T12:25:05;10.55;;;5.55;;
51228;SDS011;37304;52.216;6.874;2022-07-29T12:30:10;8.00;;;5.20;;
51228;SDS011;37304;52.216;6.874;2022-07-29T12:35:17;8.43;;;5.40;;
51228;SDS011;37304;52.216;6.874;2022-07-29T12:40:20;10.23;;;4.90;;
51228;SDS011;37304;52.216;6.874;2022-07-29T12:45:28;7.80;;;4.05;;
51228;SDS011;37304;52.216;6.874;2022-07-29T12:50:29;8.02;;;4.20;;
51228;SDS011;37304;52.216;6.874;2022-07-29T12:55:44;5.15;;;3.92;;
51228;SDS011;37304;52.216;6.874;2022-07-29T13:00:58;6.68;;;3.78;;
51228;SDS011;37304;52.216;6.874;2022-07-29T13:11:44;4.68;;;3.30;;
51228;SDS011;37304;52.216;6.874;2022-07-29T13:22:08;5.45;;;3.22;;
51228;SDS011;37304;52.216;6.874;2022-07-29T13:27:10;5.90;;;3.43;;
51228;SDS011;37304;52.216;6.874;2022-07-29T13:32:10;4.05;;;3.20;;
51228;SDS011;37304;52.216;6.874;2022-07-29T13:37:11;5.63;;;2.90;;
51228;SDS011;37304;52.216;6.874;2022-07-29T13:42:12;8.32;;;3.13;;
51228;SDS011;37304;52.216;6.874;2022-07-29T13:47:14;5.40;;;3.33;;
51228;SDS011;37304;52.216;6.874;2022-07-29T13:52:16;4.47;;;2.78;;
51228;SDS011;37304;52.216;6.874;2022-07-29T13:57:17;5.57;;;3.05;;
51228;SDS011;37304;52.216;6.874;2022-07-29T14:02:17;4.17;;;2.57;;
51228;SDS011;37304;52.216;6.874;2022-07-29T14:07:18;4.50;;;2.55;;
51228;SDS011;37304;52.216;6.874;2022-07-29T14:12:18;5.75;;;2.58;;
51228;SDS011;37304;52.216;6.874;2022-07-29T14:17:19;3.75;;;2.45;;
51228;SDS011;37304;52.216;6.874;2022-07-29T14:22:19;3.53;;;2.42;;
51228;SDS011;37304;52.216;6.874;2022-07-29T14:27:19;8.57;;;2.70;;
51228;SDS011;37304;52.216;6.874;2022-07-29T14:32:20;5.90;;;2.50;;
51228;SDS011;37304;52.216;6.874;2022-07-29T14:37:20;5.78;;;2.50;;
51228;SDS011;37304;52.216;6.874;2022-07-29T14:42:20;5.75;;;2.22;;
51228;SDS011;37304;52.216;6.874;2022-07-29T14:47:21;7.63;;;2.83;;
51228;SDS011;37304;52.216;6.874;2022-07-29T14:52:22;4.60;;;2.50;;
51228;SDS011;37304;52.216;6.874;2022-07-29T14:57:22;5.60;;;2.70;;
51228;SDS011;37304;52.216;6.874;2022-07-29T15:02:23;3.22;;;2.30;;
51228;SDS011;37304;52.216;6.874;2022-07-29T15:07:23;7.68;;;2.47;;
51228;SDS011;37304;52.216;6.874;2022-07-29T15:12:23;3.72;;;2.28;;
51228;SDS011;37304;52.216;6.874;2022-07-29T15:17:24;5.82;;;2.60;;
51228;SDS011;37304;52.216;6.874;2022-07-29T15:22:24;6.95;;;2.20;;
51228;SDS011;37304;52.216;6.874;2022-07-29T15:27:25;5.65;;;3.05;;
51228;SDS011;37304;52.216;6.874;2022-07-29T15:32:25;4.78;;;2.50;;
51228;SDS011;37304;52.216;6.874;2022-07-29T15:37:26;4.07;;;2.57;;
51228;SDS011;37304;52.216;6.874;2022-07-29T15:42:28;6.60;;;2.30;;
51228;SDS011;37304;52.216;6.874;2022-07-29T15:47:28;6.80;;;2.67;;
51228;SDS011;37304;52.216;6.874;2022-07-29T15:52:29;8.95;;;2.83;;
51228;SDS011;37304;52.216;6.874;2022-07-29T15:57:29;5.33;;;3.67;;
51228;SDS011;37304;52.216;6.874;2022-07-29T16:02:29;5.57;;;2.80;;
51228;SDS011;37304;52.216;6.874;2022-07-29T16:07:30;3.53;;;2.40;;
51228;SDS011;37304;52.216;6.874;2022-07-29T16:12:30;7.80;;;2.97;;
51228;SDS011;37304;52.216;6.874;2022-07-29T16:17:31;4.93;;;2.47;;
51228;SDS011;37304;52.216;6.874;2022-07-29T16:22:31;6.50;;;2.17;;
51228;SDS011;37304;52.216;6.874;2022-07-29T16:27:32;4.35;;;2.40;;
51228;SDS011;37304;52.216;6.874;2022-07-29T16:32:34;5.97;;;2.70;;
51228;SDS011;37304;52.216;6.874;2022-07-29T16:37:35;5.05;;;2.60;;
51228;SDS011;37304;52.216;6.874;2022-07-29T16:42:36;4.40;;;1.90;;
51228;SDS011;37304;52.216;6.874;2022-07-29T16:47:37;4.38;;;1.77;;
51228;SDS011;37304;52.216;6.874;2022-07-29T16:52:38;4.50;;;2.35;;
51228;SDS011;37304;52.216;6.874;2022-07-29T16:57:38;8.32;;;2.83;;
51228;SDS011;37304;52.216;6.874;2022-07-29T17:02:40;4.97;;;2.75;;
51228;SDS011;37304;52.216;6.874;2022-07-29T17:07:44;5.20;;;2.20;;
51228;SDS011;37304;52.216;6.874;2022-07-29T17:12:45;8.18;;;2.78;;
51228;SDS011;37304;52.216;6.874;2022-07-29T17:17:48;4.07;;;2.00;;
51228;SDS011;37304;52.216;6.874;2022-07-29T17:22:49;4.75;;;2.30;;
51228;SDS011;37304;52.216;6.874;2022-07-29T17:27:49;6.28;;;1.95;;
51228;SDS011;37304;52.216;6.874;2022-07-29T17:32:50;3.13;;;2.20;;
51228;SDS011;37304;52.216;6.874;2022-07-29T17:37:50;5.13;;;2.38;;
51228;SDS011;37304;52.216;6.874;2022-07-29T17:42:51;6.20;;;2.35;;
51228;SDS011;37304;52.216;6.874;2022-07-29T17:47:52;6.40;;;3.92;;
51228;SDS011;37304;52.216;6.874;2022-07-29T17:52:53;3.78;;;1.98;;
51228;SDS011;37304;52.216;6.874;2022-07-29T17:57:53;4.20;;;2.67;;
51228;SDS011;37304;52.216;6.874;2022-07-29T18:02:54;5.27;;;1.97;;
51228;SDS011;37304;52.216;6.874;2022-07-29T18:07:57;6.65;;;2.10;;
51228;SDS011;37304;52.216;6.874;2022-07-29T18:12:58;5.90;;;2.45;;
51228;SDS011;37304;52.216;6.874;2022-07-29T18:18:02;6.25;;;2.42;;
51228;SDS011;37304;52.216;6.874;2022-07-29T18:23:02;5.65;;;2.15;;
51228;SDS011;37304;52.216;6.874;2022-07-29T18:28:03;6.15;;;2.20;;
51228;SDS011;37304;52.216;6.874;2022-07-29T18:33:05;6.05;;;2.75;;
51228;SDS011;37304;52.216;6.874;2022-07-29T18:38:11;6.88;;;2.42;;
51228;SDS011;37304;52.216;6.874;2022-07-29T18:43:13;4.97;;;2.05;;
51228;SDS011;37304;52.216;6.874;2022-07-29T18:48:14;3.88;;;2.13;;
51228;SDS011;37304;52.216;6.874;2022-07-29T18:53:15;3.25;;;2.33;;
51228;SDS011;37304;52.216;6.874;2022-07-29T18:58:16;4.78;;;2.60;;
51228;SDS011;37304;52.216;6.874;2022-07-29T19:03:24;4.93;;;2.47;;
51228;SDS011;37304;52.216;6.874;2022-07-29T19:08:25;3.10;;;2.55;;
51228;SDS011;37304;52.216;6.874;2022-07-29T19:13:30;4.10;;;2.05;;
51228;SDS011;37304;52.216;6.874;2022-07-29T19:18:31;4.53;;;2.45;;
51228;SDS011;37304;52.216;6.874;2022-07-29T19:23:34;5.05;;;2.60;;
51228;SDS011;37304;52.216;6.874;2022-07-29T19:28:35;4.63;;;2.10;;
51228;SDS011;37304;52.216;6.874;2022-07-29T19:33:38;5.00;;;2.50;;
51228;SDS011;37304;52.216;6.874;2022-07-29T19:38:41;6.50;;;2.25;;
51228;SDS011;37304;52.216;6.874;2022-07-29T19:43:42;5.95;;;2.33;;
51228;SDS011;37304;52.216;6.874;2022-07-29T19:48:47;6.10;;;2.70;;
51228;SDS011;37304;52.216;6.874;2022-07-29T19:53:49;3.90;;;2.70;;
51228;SDS011;37304;52.216;6.874;2022-07-29T19:58:52;6.35;;;2.50;;
51228;SDS011;37304;52.216;6.874;2022-07-29T20:09:04;3.90;;;2.35;;
51228;SDS011;37304;52.216;6.874;2022-07-29T20:14:05;5.63;;;2.67;;
51228;SDS011;37304;52.216;6.874;2022-07-29T20:19:08;9.02;;;3.45;;
51228;SDS011;37304;52.216;6.874;2022-07-29T20:24:15;6.05;;;3.03;;
51228;SDS011;37304;52.216;6.874;2022-07-29T20:29:16;5.68;;;2.42;;
51228;SDS011;37304;52.216;6.874;2022-07-29T20:34:17;3.78;;;2.50;;
51228;SDS011;37304;52.216;6.874;2022-07-29T20:44:21;4.10;;;2.53;;
51228;SDS011;37304;52.216;6.874;2022-07-29T20:49:23;5.78;;;2.50;;
51228;SDS011;37304;52.216;6.874;2022-07-29T20:54:23;4.07;;;2.35;;
51228;SDS011;37304;52.216;6.874;2022-07-29T20:59:24;5.30;;;2.70;;
51228;SDS011;37304;52.216;6.874;2022-07-29T21:04:27;8.57;;;2.97;;
51228;SDS011;37304;52.216;6.874;2022-07-29T21:09:27;6.38;;;3.08;;
51228;SDS011;37304;52.216;6.874;2022-07-29T21:14:27;5.07;;;2.67;;
51228;SDS011;37304;52.216;6.874;2022-07-29T21:19:34;6.63;;;4.15;;
51228;SDS011;37304;52.216;6.874;2022-07-29T21:24:37;6.53;;;2.77;;
51228;SDS011;37304;52.216;6.874;2022-07-29T21:29:37;6.30;;;2.65;;
51228;SDS011;37304;52.216;6.874;2022-07-29T21:34:38;4.70;;;2.30;;
51228;SDS011;37304;52.216;6.874;2022-07-29T21:39:39;9.05;;;3.10;;
51228;SDS011;37304;52.216;6.874;2022-07-29T21:44:39;5.30;;;2.80;;
51228;SDS011;37304;52.216;6.874;2022-07-29T21:49:44;4.82;;;2.80;;
51228;SDS011;37304;52.216;6.874;2022-07-29T21:54:45;4.60;;;3.00;;
51228;SDS011;37304;52.216;6.874;2022-07-29T21:59:46;6.80;;;3.22;;
51228;SDS011;37304;52.216;6.874;2022-07-29T22:04:46;6.47;;;3.10;;
51228;SDS011;37304;52.216;6.874;2022-07-29T22:09:47;7.28;;;2.88;;
51228;SDS011;37304;52.216;6.874;2022-07-29T22:14:47;5.60;;;3.08;;
51228;SDS011;37304;52.216;6.874;2022-07-29T22:19:54;5.18;;;3.17;;
51228;SDS011;37304;52.216;6.874;2022-07-29T22:24:54;4.45;;;3.00;;
51228;SDS011;37304;52.216;6.874;2022-07-29T22:29:57;5.70;;;3.22;;
51228;SDS011;37304;52.216;6.874;2022-07-29T22:34:58;6.75;;;3.15;;
51228;SDS011;37304;52.216;6.874;2022-07-29T22:39:59;6.60;;;4.00;;
51228;SDS011;37304;52.216;6.874;2022-07-29T22:45:01;7.85;;;4.53;;
51228;SDS011;37304;52.216;6.874;2022-07-29T22:50:02;6.75;;;4.43;;
51228;SDS011;37304;52.216;6.874;2022-07-29T22:55:05;6.18;;;3.35;;
51228;SDS011;37304;52.216;6.874;2022-07-29T23:00:09;6.38;;;3.65;;
51228;SDS011;37304;52.216;6.874;2022-07-29T23:05:13;5.80;;;3.72;;
51228;SDS011;37304;52.216;6.874;2022-07-29T23:10:16;6.05;;;3.45;;
51228;SDS011;37304;52.216;6.874;2022-07-29T23:15:17;6.15;;;3.97;;
51228;SDS011;37304;52.216;6.874;2022-07-29T23:20:19;6.10;;;4.07;;
51228;SDS011;37304;52.216;6.874;2022-07-29T23:25:21;5.72;;;4.88;;
51228;SDS011;37304;52.216;6.874;2022-07-29T23:30:21;7.65;;;4.95;;
51228;SDS011;37304;52.216;6.874;2022-07-29T23:35:25;6.95;;;5.30;;
51228;SDS011;37304;52.216;6.874;2022-07-29T23:40:26;8.38;;;4.93;;
51228;SDS011;37304;52.216;6.874;2022-07-29T23:45:29;11.35;;;5.65;;
51228;SDS011;37304;52.216;6.874;2022-07-29T23:50:30;6.63;;;4.90;;
51228;SDS011;37304;52.216;6.874;2022-07-29T23:55:30;7.53;;;5.93;;
